Time;durP1;ratioP1;P1;durP2;ratioP2;P2;SDS_P1;SDS_P2;PMS_P1;PMS_P2;Temp;Humidity;BMP_temperature;BMP_pressure;BME280_temperature;BME280_humidity;BME280_pressure;Samples;Min_cycle;Max_cycle;Signal;HPM_P1;HPM_P2
2023/11/07 00:00:17;;;;;;;4.40;2.30;;;;;;;6.15;100.00;100063.90;105447;1257;61734;-55
2023/11/07 00:02:46;;;;;;;5.50;2.20;;;;;;;6.20;100.00;100067.77;105685;1256;59698;-55
2023/11/07 00:05:14;;;;;;;5.20;2.40;;;;;;;6.24;100.00;100072.98;105734;1253;71758;-55
2023/11/07 00:07:42;;;;;;;6.40;3.10;;;;;;;6.27;100.00;100070.55;105689;1252;65754;-55
2023/11/07 00:10:10;;;;;;;5.80;2.30;;;;;;;6.28;100.00;100073.60;105617;1254;73088;-56
2023/11/07 00:12:37;;;;;;;5.40;2.50;;;;;;;6.25;100.00;100073.05;105751;1257;60459;-55
2023/11/07 00:15:06;;;;;;;4.90;2.10;;;;;;;6.24;100.00;100070.46;105691;1250;60261;-55
2023/11/07 00:17:34;;;;;;;3.80;2.20;;;;;;;6.27;100.00;100075.23;105791;1253;73292;-56
2023/11/07 00:20:03;;;;;;;4.70;2.40;;;;;;;6.34;100.00;100076.27;105684;1253;66911;-56
2023/11/07 00:22:33;;;;;;;4.90;2.10;;;;;;;6.41;100.00;100077.80;105637;1257;71745;-56
2023/11/07 00:25:01;;;;;;;4.70;2.50;;;;;;;6.51;100.00;100075.36;105607;1256;60384;-56
2023/11/07 00:27:29;;;;;;;5.10;2.80;;;;;;;6.62;100.00;100079.40;105714;1257;60053;-56
2023/11/07 00:29:58;;;;;;;6.30;3.00;;;;;;;6.68;100.00;100074.38;105554;1252;73089;-56
2023/11/07 00:32:26;;;;;;;5.80;2.60;;;;;;;6.73;100.00;100081.41;105680;1257;65623;-56
2023/11/07 00:34:53;;;;;;;7.00;2.60;;;;;;;6.78;100.00;100084.41;105563;1250;72718;-56
2023/11/07 00:37:23;;;;;;;6.40;2.50;;;;;;;6.81;100.00;100090.67;105721;1256;61689;-56
2023/11/07 00:39:51;;;;;;;5.00;2.60;;;;;;;6.84;100.00;100092.45;105733;1256;60107;-56
2023/11/07 00:42:18;;;;;;;4.40;2.50;;;;;;;6.85;100.00;100092.34;105716;1253;71733;-56
2023/11/07 00:44:47;;;;;;;4.40;2.60;;;;;;;6.83;100.00;100095.92;105616;1257;66894;-56
2023/11/07 00:47:15;;;;;;;6.00;2.90;;;;;;;6.80;100.00;100103.34;105774;1253;72681;-56
2023/11/07 00:49:43;;;;;;;4.80;2.80;;;;;;;6.78;100.00;100107.02;105759;1257;60654;-56
2023/11/07 00:52:11;;;;;;;4.60;2.60;;;;;;;6.75;100.00;100111.14;105518;1253;60106;-55
2023/11/07 00:54:39;;;;;;;5.80;2.60;;;;;;;6.72;100.00;100113.33;105643;1251;71792;-56
2023/11/07 00:57:06;;;;;;;5.80;2.60;;;;;;;6.71;100.00;100117.83;105933;1253;66978;-56
2023/11/07 00:59:34;;;;;;;5.60;2.80;;;;;;;6.68;100.00;100121.36;105358;1253;71406;-56
2023/11/07 01:02:03;;;;;;;9.00;3.40;;;;;;;6.67;100.00;100118.45;105679;1256;60153;-56
2023/11/07 01:04:31;;;;;;;4.90;2.60;;;;;;;6.64;100.00;100120.39;105778;1254;60554;-56
2023/11/07 01:06:58;;;;;;;6.00;2.90;;;;;;;6.63;100.00;100120.67;105572;1252;73196;-56
2023/11/07 01:09:26;;;;;;;4.90;3.00;;;;;;;6.59;100.00;100123.00;105464;1254;66988;-57
2023/11/07 01:11:54;;;;;;;5.90;3.00;;;;;;;6.54;100.00;100124.20;105661;1253;72713;-56
2023/11/07 01:14:24;;;;;;;5.20;3.30;;;;;;;6.50;100.00;100134.65;105667;1253;60464;-55
2023/11/07 01:16:51;;;;;;;5.90;3.00;;;;;;;6.47;100.00;100134.27;105646;1253;60124;-56
2023/11/07 01:19:20;;;;;;;5.80;2.60;;;;;;;6.44;100.00;100141.99;105600;1256;73137;-56
2023/11/07 01:21:48;;;;;;;5.00;2.40;;;;;;;6.39;100.00;100147.14;105645;1257;66243;-56
2023/11/07 01:24:16;;;;;;;6.70;2.70;;;;;;;6.36;100.00;100152.86;105668;1254;71275;-56
2023/11/07 01:26:45;;;;;;;5.40;3.30;;;;;;;6.33;100.00;100155.01;105599;1258;60750;-56
2023/11/07 01:29:13;;;;;;;5.10;2.60;;;;;;;6.31;100.00;100157.90;106001;1253;60102;-56
2023/11/07 01:31:41;;;;;;;6.60;2.60;;;;;;;6.25;100.00;100156.75;105736;1251;71810;-56
2023/11/07 01:34:09;;;;;;;6.10;2.80;;;;;;;6.23;100.00;100157.37;105366;1252;65549;-56
2023/11/07 01:36:37;;;;;;;6.60;2.70;;;;;;;6.19;100.00;100155.98;105751;1253;73166;-55
2023/11/07 01:39:05;;;;;;;5.40;2.90;;;;;;;6.15;100.00;100159.31;105372;1258;60744;-56
2023/11/07 01:41:33;;;;;;;5.40;2.50;;;;;;;6.10;100.00;100161.69;105590;1254;60092;-56
2023/11/07 01:44:01;;;;;;;5.20;2.90;;;;;;;6.04;100.00;100167.69;105722;1252;73119;-56
2023/11/07 01:46:29;;;;;;;5.20;2.90;;;;;;;5.98;100.00;100175.90;105795;1255;66929;-56
2023/11/07 01:48:57;;;;;;;5.70;2.70;;;;;;;5.90;100.00;100177.58;105855;1254;72196;-57
2023/11/07 01:51:24;;;;;;;5.00;2.90;;;;;;;5.81;100.00;100180.89;105544;1253;61735;-56
2023/11/07 01:53:52;;;;;;;5.80;2.40;;;;;;;5.74;100.00;100180.41;105592;1257;59868;-56
2023/11/07 01:56:24;;;;;;;5.30;3.00;;;;;;;5.69;100.00;100183.26;105675;1252;73031;-57
2023/11/07 01:58:51;;;;;;;;;;;;;;;5.66;100.00;100186.48;105993;1253;66755;-58
2023/11/07 02:01:19;;;;;;;5.00;2.60;;;;;;;5.66;100.00;100191.84;105313;1253;73298;-57
2023/11/07 02:03:47;;;;;;;7.60;3.10;;;;;;;5.66;100.00;100195.65;105699;1257;60154;-56
2023/11/07 02:06:15;;;;;;;6.00;3.20;;;;;;;5.63;100.00;100203.66;105698;1257;59613;-56
2023/11/07 02:08:43;;;;;;;7.80;3.50;;;;;;;5.58;100.00;100208.25;105706;1251;71778;-57
2023/11/07 02:11:11;;;;;;;7.80;3.40;;;;;;;5.56;100.00;100210.58;105412;1256;67088;-57
2023/11/07 02:13:39;;;;;;;4.40;2.60;;;;;;;5.53;100.00;100213.93;105544;1258;71443;-56
2023/11/07 02:16:07;;;;;;;4.30;2.50;;;;;;;5.50;100.00;100214.46;105619;1257;60463;-56
2023/11/07 02:18:35;;;;;;;5.20;2.80;;;;;;;5.45;100.00;100214.45;105839;1252;60044;-58
2023/11/07 02:21:03;;;;;;;5.40;2.70;;;;;;;5.40;100.00;100216.67;105619;1252;73008;-56
2023/11/07 02:23:34;;;;;;;5.30;2.40;;;;;;;5.34;100.00;100224.09;105652;1259;65661;-56
2023/11/07 02:26:02;;;;;;;5.00;2.20;;;;;;;5.28;100.00;100226.09;105610;1254;72674;-56
2023/11/07 02:28:30;;;;;;;3.70;1.80;;;;;;;5.24;100.00;100228.13;105586;1259;61740;-58
2023/11/07 02:30:57;;;;;;;3.70;2.00;;;;;;;5.23;100.00;100230.73;105621;1257;60957;-56
2023/11/07 02:33:25;;;;;;;4.00;1.80;;;;;;;5.23;100.00;100227.41;105608;1253;71805;-56
2023/11/07 02:35:53;;;;;;;3.50;2.10;;;;;;;5.27;100.00;100229.86;105597;1256;65858;-56
2023/11/07 02:38:22;;;;;;;4.20;2.10;;;;;;;5.30;100.00;100232.08;105895;1253;72765;-59
2023/11/07 02:40:50;;;;;;;3.70;1.90;;;;;;;5.32;100.00;100236.00;105607;1253;62638;-56
2023/11/07 02:43:19;;;;;;;3.10;1.60;;;;;;;5.34;100.00;100236.50;105663;1252;60493;-56
2023/11/07 02:45:48;;;;;;;3.60;1.50;;;;;;;5.36;100.00;100237.00;105638;1259;73934;-56
2023/11/07 02:48:16;;;;;;;3.60;1.80;;;;;;;5.37;100.00;100237.40;105634;1257;66931;-60
2023/11/07 02:50:44;;;;;;;3.10;1.60;;;;;;;5.40;100.00;100236.33;105384;1258;71405;-56
2023/11/07 02:53:13;;;;;;;4.30;1.80;;;;;;;5.40;100.00;100243.52;105668;1253;60355;-57
2023/11/07 02:55:40;;;;;;;3.30;1.90;;;;;;;5.41;100.00;100245.70;105669;1257;60538;-56
2023/11/07 02:58:10;;;;;;;3.70;1.40;;;;;;;5.42;100.00;100250.55;105553;1251;73904;-56
2023/11/07 03:00:38;;;;;;;3.90;1.40;;;;;;;5.43;100.00;100254.73;105722;1256;65043;-57
2023/11/07 03:03:07;;;;;;;3.80;1.60;;;;;;;5.44;100.00;100257.13;105692;1259;72651;-57
2023/11/07 03:05:35;;;;;;;3.50;1.50;;;;;;;5.43;100.00;100261.00;105688;1257;60483;-56
2023/11/07 03:08:04;;;;;;;3.30;1.40;;;;;;;5.44;100.00;100262.98;105759;1251;60648;-57
2023/11/07 03:10:31;;;;;;;4.30;1.40;;;;;;;5.47;100.00;100267.30;105657;1259;74690;-56
2023/11/07 03:13:01;;;;;;;3.90;1.80;;;;;;;5.51;100.00;100267.23;105524;1256;65537;-57
2023/11/07 03:15:30;;;;;;;3.20;1.20;;;;;;;5.53;100.00;100270.85;105488;1253;71855;-56
2023/11/07 03:17:58;;;;;;;3.70;1.50;;;;;;;5.53;100.00;100276.55;105725;1251;62158;-56
2023/11/07 03:20:26;;;;;;;3.00;1.10;;;;;;;5.53;100.00;100282.20;105408;1257;60720;-56
2023/11/07 03:22:53;;;;;;;3.40;1.60;;;;;;;5.55;100.00;100283.59;105631;1253;73886;-56
2023/11/07 03:25:22;;;;;;;2.50;1.20;;;;;;;5.60;100.00;100288.42;105619;1259;65630;-56
2023/11/07 03:27:49;;;;;;;4.50;2.30;;;;;;;5.65;100.00;100289.52;105606;1256;72724;-56
2023/11/07 03:30:17;;;;;;;3.60;1.50;;;;;;;5.70;100.00;100293.02;106434;1253;60406;-57
2023/11/07 03:32:45;;;;;;;3.00;1.50;;;;;;;5.70;100.00;100295.44;105603;1251;60536;-55
2023/11/07 03:35:13;;;;;;;3.50;1.30;;;;;;;5.68;100.00;100298.69;105729;1253;72628;-56
2023/11/07 03:37:41;;;;;;;3.40;1.40;;;;;;;5.64;100.00;100303.05;105753;1253;66985;-56
2023/11/07 03:40:09;;;;;;;4.70;1.60;;;;;;;5.58;100.00;100303.14;105520;1253;71446;-57
2023/11/07 03:42:37;;;;;;;4.40;1.80;;;;;;;5.54;100.00;100307.44;105618;1253;60547;-56
2023/11/07 03:45:06;;;;;;;6.30;2.40;;;;;;;5.50;100.00;100305.77;105682;1253;60502;-56
2023/11/07 03:47:34;;;;;;;4.30;1.80;;;;;;;5.48;100.00;100305.48;105648;1259;73919;-56
2023/11/07 03:50:03;;;;;;;5.50;1.70;;;;;;;5.44;100.00;100304.96;105628;1253;66896;-56
2023/11/07 03:52:30;;;;;;;3.80;1.70;;;;;;;5.40;100.00;100306.05;105625;1259;73520;-56
2023/11/07 03:54:58;;;;;;;7.60;4.20;;;;;;;5.35;100.00;100311.73;105597;1256;60423;-56
2023/11/07 03:57:26;;;;;;;6.50;2.60;;;;;;;5.31;100.00;100314.54;105665;1253;60515;-60
2023/11/07 03:59:54;;;;;;;5.10;1.90;;;;;;;5.31;100.00;100314.58;105684;1251;72687;-56
2023/11/07 04:02:21;;;;;;;4.40;1.80;;;;;;;5.30;100.00;100319.45;105371;1256;65784;-56
2023/11/07 04:04:49;;;;;;;3.80;1.80;;;;;;;5.30;100.00;100327.00;105587;1254;71010;-57
2023/11/07 04:07:17;;;;;;;3.70;1.80;;;;;;;5.28;100.00;100329.46;105636;1253;61721;-56
2023/11/07 04:09:45;;;;;;;3.70;1.80;;;;;;;5.25;100.00;100335.25;105578;1251;60373;-56
2023/11/07 04:12:12;;;;;;;3.80;1.80;;;;;;;5.19;100.00;100335.89;105674;1257;73918;-57
2023/11/07 04:14:40;;;;;;;5.80;2.10;;;;;;;5.13;100.00;100337.59;105471;1257;65707;-56
2023/11/07 04:17:08;;;;;;;5.20;1.90;;;;;;;5.07;100.00;100340.23;105602;1253;72695;-56
2023/11/07 04:19:36;;;;;;;2.70;1.10;;;;;;;5.01;100.00;100340.80;105689;1257;61683;-56
2023/11/07 04:22:04;;;;;;;3.50;1.80;;;;;;;4.99;100.00;100345.02;105423;1251;60453;-56
2023/11/07 04:24:31;;;;;;;4.10;2.00;;;;;;;4.97;100.00;100350.63;105699;1252;72640;-56
2023/11/07 04:26:59;;;;;;;3.50;1.80;;;;;;;4.98;100.00;100353.70;105697;1257;66918;-59
2023/11/07 04:29:27;;;;;;;4.60;2.30;;;;;;;4.98;100.00;100359.54;106157;1253;72672;-58
2023/11/07 04:39:36;;;;;;;4.40;2.20;;;;;;;5.03;100.00;100381.23;102423;1293;600633;-58
2023/11/07 04:42:05;;;;;;;5.90;2.10;;;;;;;5.08;100.00;100386.79;105062;1270;60004;-59
2023/11/07 04:44:33;;;;;;;6.70;2.50;;;;;;;5.12;100.00;100389.68;104817;1269;60606;-58
2023/11/07 04:47:05;;;;;;;4.00;2.10;;;;;;;5.17;100.00;100395.51;104645;1271;72260;-58
2023/11/07 04:49:33;;;;;;;4.70;2.20;;;;;;;5.22;100.00;100395.34;104711;1267;67162;-58
2023/11/07 04:52:02;;;;;;;8.80;2.50;;;;;;;5.30;100.00;100396.43;104817;1270;203109;-59
2023/11/07 04:54:30;;;;;;;4.30;2.40;;;;;;;5.40;100.00;100402.38;104781;1263;60160;-58
2023/11/07 04:56:58;;;;;;;5.00;2.60;;;;;;;5.53;100.00;100406.84;104844;1268;59311;-58
2023/11/07 04:59:26;;;;;;;6.90;2.50;;;;;;;5.68;100.00;100414.00;105282;1257;71170;-58
2023/11/07 05:01:54;;;;;;;4.90;2.40;;;;;;;5.84;100.00;100415.77;105472;1258;65564;-59
2023/11/07 05:04:22;;;;;;;4.50;2.00;;;;;;;6.04;100.00;100422.54;105196;1257;73198;-58
2023/11/07 05:06:50;;;;;;;3.70;1.90;;;;;;;6.26;100.00;100425.65;105007;1262;59683;-59
2023/11/07 05:09:18;;;;;;;3.80;2.10;;;;;;;6.56;100.00;100427.20;105291;1257;60052;-59
2023/11/07 05:11:46;;;;;;;3.90;2.20;;;;;;;7.02;100.00;100427.73;105281;1258;73082;-58
2023/11/07 05:14:14;;;;;;;3.40;1.90;;;;;;;7.71;100.00;100430.20;105061;1257;65657;-60
2023/11/07 05:16:42;;;;;;;3.90;1.50;;;;;;;8.51;100.00;100428.85;105247;1257;71430;-58
2023/11/07 05:19:11;;;;;;;4.30;2.10;;;;;;;9.29;100.00;100438.10;105278;1260;59772;-59
2023/11/07 05:21:39;;;;;;;3.40;1.90;;;;;;;10.06;100.00;100448.79;105457;1256;60041;-58
2023/11/07 05:24:07;;;;;;;3.60;1.80;;;;;;;10.81;100.00;100453.86;105306;1260;73591;-59
2023/11/07 05:26:35;;;;;;;4.10;2.20;;;;;;;11.55;100.00;100454.66;105346;1260;65712;-58
2023/11/07 05:29:04;;;;;;;3.10;1.50;;;;;;;12.22;100.00;100456.01;105174;1263;72574;-58
2023/11/07 05:31:32;;;;;;;5.20;2.20;;;;;;;12.85;100.00;100464.30;105290;1261;59692;-58
2023/11/07 05:34:00;;;;;;;3.10;1.60;;;;;;;13.48;100.00;100465.54;105310;1258;60082;-57
2023/11/07 05:36:28;;;;;;;3.60;1.90;;;;;;;14.06;100.00;100467.42;105368;1262;73069;-58
2023/11/07 05:38:56;;;;;;;3.20;1.90;;;;;;;14.55;100.00;100469.54;105302;1263;65695;-56
2023/11/07 05:41:25;;;;;;;3.50;1.90;;;;;;;14.97;100.00;100469.27;105242;1257;72737;-56
2023/11/07 05:43:52;;;;;;;4.60;2.20;;;;;;;15.37;100.00;100465.44;105764;1254;60518;-57
2023/11/07 05:46:21;;;;;;;5.50;2.10;;;;;;;15.79;100.00;100454.71;105465;1257;59567;-55
2023/11/07 05:48:52;;;;;;;4.50;2.10;;;;;;;16.17;100.00;100439.04;105603;1257;73100;-56
2023/11/07 05:51:23;;;;;;;4.70;2.70;;;;;;;16.58;100.00;100419.10;105668;1254;66031;-58
2023/11/07 05:53:51;;;;;;;5.90;3.20;;;;;;;16.93;100.00;100397.50;105883;1257;72652;-61
2023/11/07 05:56:19;;;;;;;4.40;2.70;;;;;;;17.28;100.00;100376.09;105477;1256;60152;-55
2023/11/07 05:58:49;;;;;;;4.70;2.80;;;;;;;17.62;100.00;100346.02;105687;1259;59525;-56
2023/11/07 06:01:17;;;;;;;3.50;2.00;;;;;;;17.90;100.00;100319.33;105728;1256;73173;-56
2023/11/07 06:03:45;;;;;;;4.70;2.40;;;;;;;18.09;100.00;100307.09;105740;1254;65464;-57
2023/11/07 06:06:13;;;;;;;3.50;2.30;;;;;;;18.17;100.00;100298.77;105393;1253;72628;-58
2023/11/07 06:08:41;;;;;;;3.50;2.20;;;;;;;18.22;100.00;100292.11;105665;1254;60166;-56
2023/11/07 06:11:09;;;;;;;3.40;2.10;;;;;;;18.21;100.00;100286.88;105665;1253;60027;-56
2023/11/07 06:13:37;;;;;;;3.60;1.80;;;;;;;18.21;100.00;100287.55;105726;1254;73087;-55
2023/11/07 06:16:05;;;;;;;3.40;2.30;;;;;;;18.29;100.00;100290.40;105991;1254;66963;-61
2023/11/07 06:18:32;;;;;;;4.20;2.20;;;;;;;18.39;100.00;100288.40;105539;1254;71567;-56
2023/11/07 06:21:00;;;;;;;4.70;2.30;;;;;;;18.40;100.00;100286.15;105638;1259;59704;-57
2023/11/07 06:23:28;;;;;;;3.10;2.00;;;;;;;18.50;100.00;100289.09;105570;1253;60033;-58
2023/11/07 06:25:56;;;;;;;4.10;2.50;;;;;;;18.68;100.00;100292.55;105594;1254;73036;-56
2023/11/07 06:28:24;;;;;;;3.80;2.20;;;;;;;18.73;100.00;100291.40;105516;1256;67558;-57
2023/11/07 06:30:52;;;;;;;3.50;2.10;;;;;;;18.58;100.00;100294.84;105659;1259;72687;-56
2023/11/07 06:33:19;;;;;;;3.60;1.80;;;;;;;18.48;100.00;100293.64;105613;1257;60076;-55
2023/11/07 06:35:49;;;;;;;3.50;2.00;;;;;;;18.56;100.00;100297.49;105534;1254;60082;-56
2023/11/07 06:38:21;;;;;;;3.60;1.90;;;;;;;18.74;100.00;100299.30;105552;1259;73052;-56
2023/11/07 06:40:49;;;;;;;3.30;1.70;;;;;;;18.84;100.00;100299.70;105618;1254;67069;-55
2023/11/07 06:43:17;;;;;;;3.50;2.10;;;;;;;18.87;100.00;100294.56;105520;1254;72772;-56
2023/11/07 06:45:45;;;;;;;4.60;1.80;;;;;;;18.77;100.00;100299.61;105835;1257;59586;-58
2023/11/07 06:48:12;;;;;;;3.40;2.10;;;;;;;18.65;100.00;100305.54;105410;1259;59557;-55
2023/11/07 06:50:41;;;;;;;3.70;1.90;;;;;;;18.55;100.00;100308.40;105542;1254;73508;-55
2023/11/07 06:53:09;;;;;;;3.60;2.00;;;;;;;18.46;100.00;100308.91;105659;1254;65798;-56
2023/11/07 06:55:37;;;;;;;6.80;3.20;;;;;;;18.51;100.00;100307.91;105651;1260;72746;-55
2023/11/07 06:58:07;;;;;;;4.50;2.00;;;;;;;18.67;100.00;100308.64;105639;1259;60191;-55
2023/11/07 07:00:37;;;;;;;3.90;2.30;;;;;;;18.61;100.00;100310.90;105590;1254;59986;-57
2023/11/07 07:03:05;;;;;;;3.40;1.70;;;;;;;18.54;100.00;100311.92;105574;1254;72048;-55
2023/11/07 07:05:33;;;;;;;3.90;1.70;;;;;;;18.54;100.00;100310.70;105464;1257;65625;-56
2023/11/07 07:08:01;;;;;;;3.80;1.80;;;;;;;18.63;100.00;100307.41;105798;1257;72708;-56
2023/11/07 07:10:29;;;;;;;3.50;2.20;;;;;;;18.78;100.00;100312.79;105542;1258;59678;-56
2023/11/07 07:12:57;;;;;;;3.00;1.60;;;;;;;18.95;100.00;100311.89;105475;1253;60051;-56
2023/11/07 07:15:25;;;;;;;4.60;1.90;;;;;;;19.24;100.00;100311.22;106895;1254;73086;-56
2023/11/07 07:17:53;;;;;;;3.10;2.00;;;;;;;19.47;100.00;100312.18;105670;1254;65718;-56
2023/11/07 07:20:21;;;;;;;3.90;1.90;;;;;;;19.51;100.00;100315.90;105682;1257;73963;-56
2023/11/07 07:22:49;;;;;;;7.30;3.20;;;;;;;19.48;100.00;100312.40;105608;1257;61683;-56
2023/11/07 07:25:20;;;;;;;10.30;4.10;;;;;;;19.44;100.00;100313.41;105614;1254;60178;-56
2023/11/07 07:27:49;;;;;;;6.10;2.80;;;;;;;19.48;100.00;100320.08;105661;1257;75416;-56
2023/11/07 07:30:20;;;;;;;4.30;1.80;;;;;;;19.54;100.00;100318.39;105662;1260;67185;-56
2023/11/07 07:32:50;;;;;;;3.00;1.60;;;;;;;19.53;100.00;100325.56;105640;1259;72729;-56
2023/11/07 07:35:20;;;;;;;2.60;1.40;;;;;;;19.48;100.00;100326.46;105523;1254;59794;-56
2023/11/07 07:37:52;;;;;;;3.50;1.90;;;;;;;19.44;100.00;100330.34;105730;1254;60110;-56
2023/11/07 07:40:25;;;;;;;3.80;1.60;;;;;;;19.47;100.00;100331.79;105594;1253;71851;-56
2023/11/07 07:42:58;;;;;;;3.40;1.80;;;;;;;19.44;100.00;100329.11;105628;1253;67189;-56
2023/11/07 07:45:26;;;;;;;2.50;1.40;;;;;;;19.40;100.00;100332.11;105587;1257;74781;-56
2023/11/07 07:47:54;;;;;;;3.30;1.50;;;;;;;19.46;100.00;100334.16;105866;1257;59959;-57
2023/11/07 07:50:22;;;;;;;2.30;1.30;;;;;;;19.52;100.00;100338.38;105638;1254;59704;-56
2023/11/07 07:52:56;;;;;;;3.00;1.40;;;;;;;19.56;100.00;100338.81;105680;1253;76279;-54
2023/11/07 07:55:27;;;;;;;3.40;1.20;;;;;;;19.55;100.00;100341.92;105427;1258;67014;-56
2023/11/07 07:58:03;;;;;;;4.90;1.60;;;;;;;19.52;100.00;100339.88;105509;1253;72783;-56
2023/11/07 08:00:31;;;;;;;3.30;1.10;;;;;;;19.55;100.00;100343.45;105647;1257;59746;-56
2023/11/07 08:03:06;;;;;;;2.90;1.50;;;;;;;19.62;100.00;100342.70;105554;1253;60195;-56
2023/11/07 08:05:38;;;;;;;2.60;1.20;;;;;;;19.64;100.00;100343.10;105446;1257;73197;-58
2023/11/07 08:08:09;;;;;;;4.40;1.50;;;;;;;19.69;100.00;100346.24;105411;1254;67243;-56
2023/11/07 08:10:38;;;;;;;3.80;1.50;;;;;;;19.73;100.00;100344.98;105556;1259;75221;-56
2023/11/07 08:13:06;;;;;;;3.50;1.50;;;;;;;19.83;100.00;100342.02;105673;1252;62579;-58
2023/11/07 08:15:35;;;;;;;2.60;1.50;;;;;;;20.02;100.00;100343.88;105632;1254;61812;-56
2023/11/07 08:18:06;;;;;;;2.60;1.30;;;;;;;20.18;100.00;100345.95;105689;1254;75766;-56
2023/11/07 08:20:37;;;;;;;3.10;1.20;;;;;;;20.26;100.00;100346.63;105641;1260;69294;-56
2023/11/07 08:23:06;;;;;;;2.80;1.20;;;;;;;20.29;100.00;100342.44;105607;1253;75227;-58
2023/11/07 08:25:34;;;;;;;2.60;1.50;;;;;;;20.19;98.70;100345.80;105526;1253;61056;-56
2023/11/07 08:28:07;;;;;;;3.50;1.60;;;;;;;20.04;99.55;100347.13;105654;1254;62555;-56
2023/11/07 08:30:38;;;;;;;2.50;1.20;;;;;;;19.92;100.00;100349.09;105608;1254;75160;-56
2023/11/07 08:33:07;;;;;;;4.00;1.20;;;;;;;19.85;100.00;100350.40;105954;1253;69854;-57
2023/11/07 08:35:36;;;;;;;2.70;1.10;;;;;;;19.81;100.00;100352.95;105408;1254;75217;-56
2023/11/07 08:38:04;;;;;;;2.20;1.30;;;;;;;19.92;100.00;100350.77;106437;1252;62540;-56
2023/11/07 08:40:34;;;;;;;2.70;1.40;;;;;;;20.05;100.00;100350.48;105689;1254;62537;-56
2023/11/07 08:43:03;;;;;;;4.50;1.40;;;;;;;20.07;100.00;100349.93;105841;1254;76150;-57
2023/11/07 08:45:32;;;;;;;3.00;1.30;;;;;;;20.01;96.82;100352.27;105813;1254;68900;-59
2023/11/07 08:48:01;;;;;;;3.10;1.00;;;;;;;19.86;97.43;100352.79;105401;1254;74147;-57
2023/11/07 08:50:29;;;;;;;3.30;1.10;;;;;;;19.81;98.19;100353.88;105661;1254;61670;-55
2023/11/07 08:53:04;;;;;;;3.90;0.90;;;;;;;19.81;97.43;100353.24;105844;1254;64114;-58
2023/11/07 08:55:33;;;;;;;3.60;1.20;;;;;;;19.77;98.22;100354.67;105657;1258;76497;-57
2023/11/07 08:58:03;;;;;;;4.50;1.20;;;;;;;19.83;100.00;100352.06;105668;1259;69445;-56
2023/11/07 09:00:32;;;;;;;3.80;1.50;;;;;;;19.97;100.00;100345.97;105567;1253;75151;-55
2023/11/07 09:03:00;;;;;;;4.00;1.60;;;;;;;20.05;100.00;100348.38;105756;1259;61121;-57
2023/11/07 09:05:28;;;;;;;3.00;1.10;;;;;;;20.06;100.00;100345.20;105526;1257;61979;-56
2023/11/07 09:07:56;;;;;;;3.10;1.20;;;;;;;20.17;100.00;100345.15;105617;1259;76479;-56
2023/11/07 09:10:25;;;;;;;2.80;1.30;;;;;;;20.25;97.73;100344.19;105572;1253;71076;-55
2023/11/07 09:12:53;;;;;;;3.40;1.20;;;;;;;20.28;99.93;100341.59;105483;1257;74771;-56
2023/11/07 09:15:21;;;;;;;2.40;0.90;;;;;;;20.42;99.74;100337.38;105497;1259;61497;-56
2023/11/07 09:17:49;;;;;;;3.10;1.20;;;;;;;20.51;96.14;100336.56;105489;1259;61439;-56
2023/11/07 09:20:18;;;;;;;2.90;1.00;;;;;;;20.53;90.79;100336.69;105500;1259;78093;-56
2023/11/07 09:22:46;;;;;;;4.70;1.80;;;;;;;20.40;89.23;100337.66;105693;1258;68374;-57
2023/11/07 09:25:14;;;;;;;2.20;1.20;;;;;;;20.30;93.48;100338.33;105329;1255;74458;-56
2023/11/07 09:27:42;;;;;;;2.60;1.10;;;;;;;20.22;91.37;100336.43;105549;1258;61423;-56
2023/11/07 09:30:10;;;;;;;2.90;1.40;;;;;;;20.13;96.66;100335.20;105628;1256;61401;-56
2023/11/07 09:32:40;;;;;;;2.00;1.00;;;;;;;20.19;96.50;100334.64;105372;1258;76398;-55
2023/11/07 09:35:08;;;;;;;4.00;1.20;;;;;;;20.17;91.20;100331.17;105621;1254;69637;-56
2023/11/07 09:37:42;;;;;;;2.40;1.10;;;;;;;20.09;94.60;100332.92;105779;1253;74157;-56
2023/11/07 09:40:13;;;;;;;2.80;0.90;;;;;;;20.11;94.50;100331.04;105675;1254;63479;-56
2023/11/07 09:42:41;;;;;;;3.30;1.00;;;;;;;20.11;92.61;100328.16;105694;1253;62031;-56
2023/11/07 09:45:10;;;;;;;2.50;1.20;;;;;;;20.10;94.22;100328.38;105695;1257;76794;-56
2023/11/07 09:47:38;;;;;;;23.40;13.70;;;;;;;20.12;92.62;100329.05;105678;1254;68649;-55
2023/11/07 09:50:10;;;;;;;5.50;3.00;;;;;;;20.04;88.11;100321.05;105452;1259;73926;-56
2023/11/07 09:52:38;;;;;;;3.10;1.70;;;;;;;19.91;92.10;100324.58;105627;1254;61594;-56
2023/11/07 09:55:08;;;;;;;8.10;2.80;;;;;;;19.89;94.95;100323.49;105705;1259;64243;-58
2023/11/07 09:57:40;;;;;;;;;;;;;;;19.91;95.66;100322.55;105498;1258;75252;-56
2023/11/07 10:00:09;;;;;;;2.90;1.60;;;;;;;19.84;92.22;100319.23;105663;1256;69602;-56
2023/11/07 10:02:38;;;;;;;3.00;1.40;;;;;;;19.70;91.85;100317.91;105676;1254;74111;-56
2023/11/07 10:05:07;;;;;;;3.80;1.50;;;;;;;19.60;94.61;100322.12;105783;1257;61914;-56
2023/11/07 10:07:35;;;;;;;3.30;1.40;;;;;;;19.56;92.64;100317.23;105633;1253;62009;-55
2023/11/07 10:10:05;;;;;;;2.30;1.20;;;;;;;19.49;90.44;100317.45;105624;1256;75903;-56
2023/11/07 10:12:39;;;;;;;2.60;1.30;;;;;;;19.41;92.48;100315.80;105539;1258;71134;-58
2023/11/07 10:15:18;;;;;;;2.50;1.10;;;;;;;19.39;94.94;100317.07;105619;1254;74869;-56
2023/11/07 10:18:06;;;;;;;2.50;1.00;;;;;;;19.45;93.28;100311.57;105710;1254;62601;-55
2023/11/07 10:20:48;;;;;;;3.60;1.20;;;;;;;19.38;91.68;100320.98;105556;1257;63719;-56
2023/11/07 10:23:16;;;;;;;1.80;0.80;;;;;;;19.37;90.87;100320.59;105621;1256;76428;-56
2023/11/07 10:25:49;;;;;;;3.10;1.00;;;;;;;19.38;93.00;100317.00;105622;1259;69364;-56
2023/11/07 10:28:19;;;;;;;2.60;1.10;;;;;;;19.47;95.27;100321.38;105556;1254;74139;-55
2023/11/07 10:30:48;;;;;;;2.80;1.10;;;;;;;19.54;92.57;100320.02;105715;1254;63055;-56
2023/11/07 10:33:32;;;;;;;2.50;1.00;;;;;;;19.61;92.67;100319.92;105720;1259;61478;-57
2023/11/07 10:36:01;;;;;;;3.10;1.30;;;;;;;19.69;88.94;100321.02;105342;1256;76464;-56
2023/11/07 10:38:30;;;;;;;1.80;0.90;;;;;;;19.64;87.15;100317.08;105558;1255;68108;-57
2023/11/07 10:41:01;;;;;;;2.70;1.30;;;;;;;19.61;90.98;100311.46;105547;1254;74121;-55
2023/11/07 10:43:39;;;;;;;3.10;1.00;;;;;;;19.61;88.88;100313.14;105653;1258;62021;-56
2023/11/07 10:46:09;;;;;;;2.60;1.30;;;;;;;19.50;88.57;100316.29;105663;1259;61597;-56
2023/11/07 10:48:41;;;;;;;3.10;1.10;;;;;;;19.32;86.09;100317.00;105716;1254;76925;-56
2023/11/07 10:51:10;;;;;;;5.10;1.30;;;;;;;18.96;85.53;100324.84;105570;1254;69345;-55
2023/11/07 10:53:43;;;;;;;2.80;1.30;;;;;;;18.54;89.80;100319.91;105673;1253;76632;-56
2023/11/07 10:56:13;;;;;;;2.70;1.20;;;;;;;18.27;95.51;100319.35;105688;1253;63788;-56
2023/11/07 10:59:02;;;;;;;5.40;1.60;;;;;;;18.08;98.66;100316.19;105727;1258;61454;-56
2023/11/07 11:01:32;;;;;;;4.50;1.10;;;;;;;17.90;100.00;100314.73;105614;1254;73935;-57
2023/11/07 11:04:00;;;;;;;3.40;1.00;;;;;;;17.74;100.00;100323.38;105642;1258;68322;-56
2023/11/07 11:06:30;;;;;;;2.50;1.30;;;;;;;17.55;100.00;100321.92;105749;1257;74719;-56
2023/11/07 11:09:10;;;;;;;3.60;1.00;;;;;;;17.35;100.00;100325.65;105703;1258;61472;-56
2023/11/07 11:11:40;;;;;;;2.60;1.20;;;;;;;17.25;100.00;100324.62;105489;1257;63299;-56
2023/11/07 11:14:08;;;;;;;2.40;1.00;;;;;;;17.30;100.00;100320.88;105373;1254;72656;-56
2023/11/07 11:16:38;;;;;;;2.90;0.90;;;;;;;17.31;100.00;100322.96;105591;1254;68051;-56
2023/11/07 11:19:33;;;;;;;4.40;1.10;;;;;;;17.26;100.00;100320.79;105744;1253;74129;-57
2023/11/07 11:22:29;;;;;;;5.70;3.60;;;;;;;17.17;100.00;100322.18;105360;1254;62039;-56
2023/11/07 11:25:16;;;;;;;2.20;1.00;;;;;;;17.07;100.00;100321.56;105343;1258;63809;-57
2023/11/07 11:27:50;;;;;;;3.40;1.00;;;;;;;16.89;100.00;100332.31;105607;1253;72599;-56
2023/11/07 11:30:26;;;;;;;2.50;0.80;;;;;;;16.75;100.00;100329.08;105611;1254;69827;-56